Terminal Aerodrome Forecast
Issued by NWS Lake Charles, LA

Home | Current Version | Previous Version | Text Only | Print | Product List | Glossary On
Versions: 1 2 3 4 5 6 7 8 9 10 11 12 13 14 15 16 17
467
FTUS44 KLCH 292323
TAFARA
TAF
KARA 292323Z 3000/3024 15015G22KT P6SM VCTS SCT021CB BKN025 OVC060
      TEMPO 3001/3005 VRB20G35KT 2SM TSRA BKN018CB OVC025
     FM300500 18012G18KT P6SM VCTS SCT025CB BKN035
      TEMPO 3005/3008 VRB20G35KT 2SM TSRA BKN025CB
     FM301000 20008KT P6SM VCSH OVC015
     FM301200 20007KT P6SM BKN025=

USA.gov is the U.S. government's official web portal to all federal, state and local government web resources and services.